Time;durP1;ratioP1;P1;durP2;ratioP2;P2;SDS_P1;SDS_P2;PMS_P1;PMS_P2;Temp;Humidity;BMP_temperature;BMP_pressure;BME280_temperature;BME280_humidity;BME280_pressure;Samples;Min_cycle;Max_cycle;Signal;HPM_P1;HPM_P2
2020/12/20 07:35:32;;;;;;;11.50;1.65;;;6.20;99.90;;;;;;5073512;28;20068;-90
2020/12/20 07:38:32;;;;;;;15.88;2.13;;;6.20;99.90;;;;;;5046613;28;20052;-92
2020/12/20 07:41:18;;;;;;;13.02;2.00;;;6.10;99.90;;;;;;5027858;28;20348;-92
2020/12/20 07:44:00;;;;;;;22.77;2.13;;;6.10;99.90;;;;;;5034598;28;20060;-92
2020/12/20 07:46:39;;;;;;;15.90;2.13;;;6.10;99.90;;;;;;5028108;28;20120;-92
2020/12/20 07:49:28;;;;;;;23.23;2.67;;;6.00;99.90;;;;;;5028522;28;20102;-92
2020/12/20 07:52:15;;;;;;;16.13;2.28;;;6.10;99.90;;;;;;5027607;28;20054;-92
2020/12/20 07:55:00;;;;;;;18.42;3.00;;;6.10;99.90;;;;;;5030787;28;20056;-92
2020/12/20 07:57:47;;;;;;;28.40;3.15;;;6.00;99.90;;;;;;5030439;28;20127;-90
2020/12/20 08:00:40;;;;;;;23.90;2.83;;;6.00;99.90;;;;;;5026899;28;20059;-92
2020/12/20 08:03:26;;;;;;;26.05;3.53;;;5.90;99.90;;;;;;5025383;28;20041;-93
2020/12/20 08:06:30;;;;;;;22.90;3.67;;;6.00;99.90;;;;;;5028463;28;20460;-91
2020/12/20 08:09:34;;;;;;;22.13;2.72;;;6.00;99.90;;;;;;5053164;28;20053;-92
2020/12/20 08:12:22;;;;;;;19.10;2.80;;;5.90;99.90;;;;;;5044398;28;20052;-92
2020/12/20 08:15:16;;;;;;;18.45;3.67;;;5.90;99.90;;;;;;5027712;28;20049;-92
2020/12/20 08:18:06;;;;;;;16.70;2.13;;;5.90;99.90;;;;;;5034536;28;20422;-92
2020/12/20 08:20:55;;;;;;;21.08;3.00;;;5.90;99.90;;;;;;5034194;28;20072;-92
2020/12/20 08:23:39;;;;;;;37.03;3.58;;;5.90;99.90;;;;;;5030974;28;20082;-91
2020/12/20 08:26:35;;;;;;;40.90;3.75;;;5.90;99.90;;;;;;5030926;28;20049;-94
2020/12/20 08:29:10;;;;;;;28.27;5.00;;;5.90;99.90;;;;;;5051363;28;20041;-92
2020/12/20 08:31:53;;;;;;;26.80;6.07;;;6.00;99.90;;;;;;5032264;28;20136;-92
2020/12/20 08:34:56;;;;;;;29.60;5.30;;;6.00;99.90;;;;;;5016948;28;20103;-92
2020/12/20 08:37:39;;;;;;;;;;;6.10;99.90;;;;;;5011091;28;20079;-92
2020/12/20 08:40:36;;;;;;;25.13;4.07;;;6.20;99.90;;;;;;5010351;28;19926;-92
2020/12/20 08:43:25;;;;;;;29.50;4.57;;;6.30;99.90;;;;;;4997508;28;20483;-92
2020/12/20 08:46:01;;;;;;;22.13;3.75;;;6.40;99.90;;;;;;4997385;28;20053;-91
2020/12/20 08:48:39;;;;;;;26.50;5.10;;;6.50;99.90;;;;;;4998272;28;20148;-91
2020/12/20 08:51:43;;;;;;;27.77;4.65;;;6.70;99.90;;;;;;4996367;28;20053;-92
2020/12/20 08:54:30;;;;;;;22.60;4.47;;;6.80;99.90;;;;;;5000247;28;20586;-91
2020/12/20 08:57:14;;;;;;;32.40;5.22;;;7.00;99.90;;;;;;4992079;28;20054;-91
2020/12/20 08:59:52;;;;;;;26.40;3.80;;;7.10;99.90;;;;;;5003180;28;20085;-90
2020/12/20 09:02:41;;;;;;;31.75;5.57;;;7.20;99.90;;;;;;5000363;28;20045;-91
2020/12/20 09:05:50;;;;;;;31.10;4.50;;;7.40;99.90;;;;;;4995814;28;20117;-90
2020/12/20 09:08:37;;;;;;;23.30;3.70;;;7.50;99.90;;;;;;4996196;28;20057;-90
2020/12/20 09:11:29;;;;;;;27.25;4.35;;;7.60;99.90;;;;;;4984430;28;20387;-89
2020/12/20 09:14:10;;;;;;;24.80;3.53;;;7.70;99.90;;;;;;4987406;28;20046;-90
2020/12/20 09:16:44;;;;;;;25.25;3.50;;;7.70;99.90;;;;;;4989619;28;20096;-89
2020/12/20 09:19:39;;;;;;;27.33;4.10;;;7.80;99.90;;;;;;5000294;28;20049;-89
2020/12/20 09:22:11;;;;;;;21.58;3.85;;;7.90;99.90;;;;;;4988474;28;20540;-90
2020/12/20 09:25:07;;;;;;;23.27;3.63;;;8.00;99.90;;;;;;4988581;28;20121;-89
2020/12/20 09:28:04;;;;;;;22.60;3.85;;;8.10;99.90;;;;;;4994612;28;20049;-90
2020/12/20 09:30:55;;;;;;;21.50;3.08;;;8.10;99.90;;;;;;5016331;28;20045;-90
2020/12/20 09:33:25;;;;;;;18.92;3.33;;;8.20;99.90;;;;;;5030915;28;20045;-90
2020/12/20 09:36:20;;;;;;;17.75;3.42;;;8.20;99.90;;;;;;5049241;28;20065;-90
2020/12/20 09:38:56;;;;;;;25.15;3.35;;;8.30;99.90;;;;;;5029627;28;20045;-90
2020/12/20 09:41:48;;;;;;;23.75;4.65;;;8.40;99.90;;;;;;5050541;28;20053;-90
2020/12/20 09:44:21;;;;;;;19.23;3.38;;;8.50;99.90;;;;;;5032432;28;20053;-90
2020/12/20 09:47:14;;;;;;;15.48;2.83;;;8.60;99.90;;;;;;5035589;28;20120;-90
2020/12/20 09:49:49;;;;;;;20.23;3.42;;;8.70;99.90;;;;;;5028865;28;20463;-91
2020/12/20 09:52:21;;;;;;;21.25;3.22;;;8.80;99.90;;;;;;5047554;28;20049;-90
2020/12/20 09:55:10;;;;;;;24.17;3.88;;;8.90;99.90;;;;;;5022119;28;20041;-90
2020/12/20 09:57:44;;;;;;;19.63;3.53;;;9.00;99.90;;;;;;5035922;28;20076;-90
2020/12/20 10:00:17;;;;;;;17.75;3.10;;;9.10;99.90;;;;;;5033359;28;20053;-90
2020/12/20 10:02:51;;;;;;;25.67;2.70;;;9.20;99.90;;;;;;5031750;28;20045;-90
2020/12/20 10:05:23;;;;;;;22.63;3.10;;;9.20;99.90;;;;;;5035394;28;20053;-90
2020/12/20 10:07:56;;;;;;;20.13;3.67;;;9.30;99.90;;;;;;5029890;28;20103;-90
2020/12/20 10:10:31;;;;;;;18.25;3.15;;;9.40;99.90;;;;;;5026332;28;20049;-90
2020/12/20 10:13:08;;;;;;;15.68;2.92;;;9.50;99.90;;;;;;5051249;28;20457;-90
2020/12/20 10:16:05;;;;;;;18.70;3.08;;;9.50;99.90;;;;;;5019779;28;20062;-91
2020/12/20 10:18:42;;;;;;;24.92;3.35;;;9.60;99.90;;;;;;4990815;28;20141;-90
2020/12/20 10:21:35;;;;;;;18.38;2.97;;;9.60;99.90;;;;;;5010541;28;20054;-90
2020/12/20 10:24:12;;;;;;;26.67;2.90;;;9.70;99.90;;;;;;4985435;28;20062;-91
2020/12/20 10:26:53;;;;;;;16.67;2.63;;;9.70;99.90;;;;;;4976623;28;20166;-91
2020/12/20 10:29:29;;;;;;;16.75;2.40;;;9.80;99.90;;;;;;4990135;28;20089;-91
2020/12/20 10:32:05;;;;;;;14.93;2.78;;;9.90;99.90;;;;;;5005707;28;20077;-90
2020/12/20 10:34:39;;;;;;;18.42;2.50;;;9.90;99.90;;;;;;4984111;28;20537;-91
2020/12/20 10:37:20;;;;;;;18.83;2.58;;;10.00;99.90;;;;;;5013771;28;20529;-90
2020/12/20 10:40:02;;;;;;;19.23;2.67;;;10.00;99.90;;;;;;5043600;28;20060;-91
2020/12/20 10:42:38;;;;;;;18.65;2.92;;;10.00;99.90;;;;;;5027367;28;20438;-89
2020/12/20 10:45:23;;;;;;;23.85;3.05;;;10.10;99.90;;;;;;5043702;28;20064;-91
2020/12/20 10:48:00;;;;;;;17.17;2.78;;;10.20;99.90;;;;;;5033131;28;20367;-91
2020/12/20 10:50:41;;;;;;;17.13;2.67;;;10.20;99.90;;;;;;5036278;28;20079;-90
2020/12/20 10:53:27;;;;;;;15.77;2.70;;;10.30;99.90;;;;;;5027189;28;20041;-90
2020/12/20 10:56:04;;;;;;;21.23;2.97;;;10.40;99.90;;;;;;5025962;28;20053;-90
2020/12/20 10:58:35;;;;;;;16.65;3.03;;;10.50;99.90;;;;;;5024095;28;20057;-89
2020/12/20 11:01:10;;;;;;;21.88;3.58;;;10.60;99.90;;;;;;5032483;28;20040;-90
2020/12/20 11:03:59;;;;;;;22.45;3.08;;;10.60;99.90;;;;;;5029884;28;20048;-90
2020/12/20 11:06:32;;;;;;;26.80;3.00;;;10.70;99.90;;;;;;5028514;28;20057;-90
2020/12/20 11:09:25;;;;;;;20.27;2.45;;;10.80;99.90;;;;;;4940831;28;20059;-90
2020/12/20 11:11:59;;;;;;;18.80;2.45;;;10.80;99.90;;;;;;4955885;28;20051;-90
2020/12/20 11:14:32;;;;;;;15.98;2.30;;;10.90;99.90;;;;;;4938922;29;20130;-90
2020/12/20 11:17:04;;;;;;;13.93;2.72;;;10.90;99.90;;;;;;4940375;28;20082;-90
2020/12/20 11:19:40;;;;;;;24.35;2.83;;;10.90;99.90;;;;;;4938404;28;20052;-91
2020/12/20 11:22:15;;;;;;;15.07;2.22;;;11.00;99.90;;;;;;4939498;28;20051;-90
2020/12/20 11:24:50;;;;;;;20.02;3.35;;;11.00;99.90;;;;;;4943662;28;20059;-90
2020/12/20 11:27:40;;;;;;;18.08;2.72;;;11.10;99.90;;;;;;4961080;28;20042;-91
2020/12/20 11:30:15;;;;;;;12.13;2.72;;;11.20;99.90;;;;;;4979121;28;20065;-90
2020/12/20 11:32:54;;;;;;;19.27;4.05;;;11.30;99.90;;;;;;4989978;28;20061;-91
2020/12/20 11:35:29;;;;;;;19.23;2.85;;;11.30;99.90;;;;;;4970743;28;20043;-90
2020/12/20 11:38:17;;;;;;;15.15;2.85;;;11.40;99.90;;;;;;4878404;29;20158;-92
2020/12/20 11:40:56;;;;;;;12.90;2.50;;;11.50;99.90;;;;;;4900986;29;20056;-90
2020/12/20 11:43:27;;;;;;;15.43;2.10;;;11.60;99.90;;;;;;4868848;29;20064;-90
2020/12/20 11:46:01;;;;;;;11.25;2.65;;;11.60;99.90;;;;;;4859603;29;20419;-90
2020/12/20 11:48:40;;;;;;;14.38;2.17;;;11.70;99.90;;;;;;4881248;29;20049;-91
2020/12/20 11:51:16;;;;;;;13.77;2.38;;;11.80;99.90;;;;;;4887791;29;20085;-91
2020/12/20 11:53:56;;;;;;;10.57;2.00;;;11.80;99.90;;;;;;4885742;29;20053;-92
2020/12/20 11:56:32;;;;;;;9.85;2.17;;;11.90;99.90;;;;;;4882603;29;20388;-91
2020/12/20 11:59:09;;;;;;;13.57;2.08;;;11.90;99.90;;;;;;4884462;29;20461;-91
2020/12/20 12:01:50;;;;;;;11.65;1.98;;;11.90;99.90;;;;;;4867749;29;20125;-91
2020/12/20 12:04:34;;;;;;;15.75;2.65;;;12.00;99.90;;;;;;4857866;29;20049;-91
2020/12/20 12:07:22;;;;;;;12.90;2.22;;;11.90;99.90;;;;;;4877165;29;20525;-91
2020/12/20 12:10:00;;;;;;;11.20;2.17;;;12.00;99.90;;;;;;4879603;29;20047;-91
2020/12/20 12:12:32;;;;;;;14.85;2.38;;;12.00;99.90;;;;;;4897360;29;20140;-88
2020/12/20 12:15:33;;;;;;;11.82;1.85;;;12.00;99.90;;;;;;4928244;28;20350;-88
2020/12/20 12:18:22;;;;;;;13.82;1.85;;;12.10;99.90;;;;;;4972637;28;20473;-88
2020/12/20 12:20:53;;;;;;;9.98;1.50;;;12.20;99.90;;;;;;4972227;28;20043;-90
2020/12/20 12:23:24;;;;;;;11.48;2.20;;;12.30;99.90;;;;;;4972498;28;20050;-89
2020/12/20 12:25:57;;;;;;;14.70;1.85;;;12.30;99.90;;;;;;4971691;28;20082;-89
2020/12/20 12:28:29;;;;;;;10.43;1.90;;;12.30;99.90;;;;;;4955478;28;20042;-89
2020/12/20 12:30:58;;;;;;;13.27;1.80;;;12.30;99.90;;;;;;4973991;28;20059;-88
2020/12/20 12:33:30;;;;;;;14.48;2.05;;;12.30;99.90;;;;;;4988003;28;20053;-89
2020/12/20 12:36:05;;;;;;;15.73;2.60;;;12.20;99.90;;;;;;5023248;28;20053;-91
2020/12/20 12:38:44;;;;;;;9.27;1.70;;;12.20;99.90;;;;;;5049410;28;20486;-89
2020/12/20 12:41:14;;;;;;;12.75;2.05;;;12.20;99.90;;;;;;5032172;28;20127;-89
2020/12/20 12:43:49;;;;;;;11.80;2.00;;;12.20;99.90;;;;;;5029821;28;20049;-89
2020/12/20 12:46:24;;;;;;;9.95;1.90;;;12.20;99.90;;;;;;5031815;28;20475;-89
2020/12/20 12:49:11;;;;;;;13.15;2.17;;;12.20;99.90;;;;;;5047604;28;20055;-89
2020/12/20 12:51:43;;;;;;;12.25;1.83;;;12.20;99.90;;;;;;5039430;28;20045;-89
2020/12/20 12:54:15;;;;;;;15.55;2.55;;;12.20;99.90;;;;;;5051844;28;20049;-89
2020/12/20 12:56:57;;;;;;;13.50;2.20;;;12.10;99.90;;;;;;5034026;28;20056;-90
2020/12/20 12:59:27;;;;;;;14.07;2.10;;;12.20;99.90;;;;;;5028955;28;20042;-89
2020/12/20 13:01:57;;;;;;;10.45;1.90;;;12.10;99.90;;;;;;5006157;28;20057;-90
2020/12/20 13:04:25;;;;;;;16.05;1.83;;;12.20;99.90;;;;;;4998995;28;20107;-90
2020/12/20 13:06:54;;;;;;;14.97;2.20;;;12.10;99.90;;;;;;5009886;28;20495;-90
2020/12/20 13:09:23;;;;;;;10.98;1.73;;;12.10;99.90;;;;;;5006339;28;20286;-90
2020/12/20 13:11:55;;;;;;;10.20;2.15;;;12.10;99.90;;;;;;5002852;28;20050;-89
2020/12/20 13:14:26;;;;;;;11.93;2.03;;;12.10;99.90;;;;;;5010645;28;20475;-89
2020/12/20 13:16:54;;;;;;;12.75;2.10;;;12.10;99.90;;;;;;5009740;28;20136;-90
2020/12/20 13:19:24;;;;;;;11.20;2.10;;;12.10;99.90;;;;;;5011990;28;20240;-91
2020/12/20 13:21:58;;;;;;;12.13;2.47;;;12.10;99.90;;;;;;5012667;28;20076;-90
2020/12/20 13:24:30;;;;;;;11.32;2.10;;;12.10;99.90;;;;;;5023026;28;20407;-90
2020/12/20 13:27:09;;;;;;;13.70;2.30;;;12.10;99.90;;;;;;5009938;28;20041;-89
2020/12/20 13:29:44;;;;;;;14.73;2.97;;;12.00;99.90;;;;;;5010243;28;20053;-93
2020/12/20 13:32:21;;;;;;;12.27;2.00;;;12.00;99.90;;;;;;5014191;28;20153;-90
2020/12/20 13:34:53;;;;;;;9.48;1.58;;;12.00;99.90;;;;;;5012695;28;20061;-89
2020/12/20 13:37:24;;;;;;;12.35;2.30;;;12.00;99.90;;;;;;5027430;28;20044;-89
2020/12/20 13:39:56;;;;;;;9.05;2.05;;;12.00;99.90;;;;;;5027570;28;20256;-89
2020/12/20 13:42:33;;;;;;;14.95;2.85;;;11.90;99.90;;;;;;5026948;28;20073;-89
2020/12/20 13:45:04;;;;;;;11.95;2.67;;;11.90;99.90;;;;;;5024336;28;20136;-89
2020/12/20 13:47:36;;;;;;;11.77;2.03;;;11.90;99.90;;;;;;5029855;28;20083;-89
2020/12/20 13:50:12;;;;;;;13.35;2.92;;;11.90;99.90;;;;;;5030610;28;20072;-89
2020/12/20 13:52:50;;;;;;;15.13;3.00;;;11.90;99.90;;;;;;5031395;28;20906;-91
2020/12/20 13:55:38;;;;;;;14.35;2.72;;;11.90;99.90;;;;;;5033133;28;20476;-88
2020/12/20 13:58:11;;;;;;;23.73;4.13;;;11.90;99.90;;;;;;5043477;28;20106;-89
2020/12/20 14:00:43;;;;;;;15.20;3.35;;;11.90;99.90;;;;;;5038021;28;20049;-89
2020/12/20 14:03:14;;;;;;;18.20;3.92;;;11.90;99.90;;;;;;5026477;28;20042;-90
2020/12/20 14:05:46;;;;;;;21.63;6.68;;;11.90;99.90;;;;;;5031866;28;20508;-89
2020/12/20 14:08:17;;;;;;;16.85;5.93;;;11.90;99.90;;;;;;5047114;28;20053;-89
2020/12/20 14:10:52;;;;;;;12.77;5.50;;;11.90;99.90;;;;;;5025887;28;20064;-88
2020/12/20 14:13:28;;;;;;;22.90;12.43;;;11.90;99.90;;;;;;5029643;28;20060;-88
2020/12/20 14:16:00;;;;;;;16.27;4.28;;;11.90;99.90;;;;;;5029107;28;20052;-89
2020/12/20 14:18:36;;;;;;;17.00;4.47;;;11.90;99.90;;;;;;5026722;28;20045;-89
2020/12/20 14:21:10;;;;;;;12.60;2.45;;;11.90;99.90;;;;;;5030348;28;20053;-88
2020/12/20 14:23:43;;;;;;;15.00;2.47;;;11.90;99.90;;;;;;5026036;28;20408;-88
2020/12/20 14:26:18;;;;;;;22.13;3.83;;;11.80;99.90;;;;;;5028843;28;20052;-88
2020/12/20 14:28:52;;;;;;;12.35;2.65;;;11.80;99.90;;;;;;5045343;28;20058;-88
2020/12/20 14:31:26;;;;;;;23.67;3.45;;;11.80;99.90;;;;;;5033356;28;20056;-89
2020/12/20 14:34:02;;;;;;;14.10;2.63;;;11.80;99.90;;;;;;5044211;28;20057;-88
2020/12/20 14:36:42;;;;;;;11.95;3.10;;;11.80;99.90;;;;;;5039184;28;20086;-93
2020/12/20 14:39:17;;;;;;;14.73;3.28;;;11.80;99.90;;;;;;5068179;28;20057;-89
2020/12/20 14:41:52;;;;;;;16.35;2.65;;;11.80;99.90;;;;;;5066722;28;20130;-89
2020/12/20 14:44:21;;;;;;;20.08;2.75;;;11.80;99.90;;;;;;5069208;28;20049;-91
2020/12/20 14:46:55;;;;;;;13.00;2.58;;;11.70;99.90;;;;;;5068075;28;20044;-90
2020/12/20 14:49:31;;;;;;;17.02;3.40;;;11.70;99.90;;;;;;5067076;28;20051;-89
2020/12/20 14:52:13;;;;;;;14.82;2.70;;;11.70;99.90;;;;;;5066290;28;20054;-90
2020/12/20 14:54:56;;;;;;;12.88;2.40;;;11.70;99.90;;;;;;5069622;28;20057;-93
2020/12/20 14:57:37;;;;;;;19.45;3.30;;;11.70;99.90;;;;;;5062277;28;20102;-91
2020/12/20 15:00:16;;;;;;;12.00;2.53;;;11.70;99.90;;;;;;5069455;28;20087;-92
2020/12/20 15:02:56;;;;;;;18.05;2.35;;;11.70;99.90;;;;;;5069302;28;20048;-92
2020/12/20 15:05:37;;;;;;;15.25;2.42;;;11.70;99.90;;;;;;5062909;28;20048;-91
2020/12/20 15:08:19;;;;;;;19.98;2.55;;;11.60;99.90;;;;;;5063105;28;20137;-91
2020/12/20 15:10:56;;;;;;;20.38;3.20;;;11.60;99.90;;;;;;5065230;28;20075;-90
2020/12/20 15:13:35;;;;;;;14.25;2.78;;;11.60;99.90;;;;;;5070216;28;20264;-92
2020/12/20 15:16:12;;;;;;;12.20;3.00;;;11.60;99.90;;;;;;5069557;28;20190;-91
2020/12/20 15:18:54;;;;;;;30.23;16.17;;;11.50;99.90;;;;;;5065781;28;20048;-91
2020/12/20 15:21:39;;;;;;;23.65;3.42;;;11.50;99.90;;;;;;5065037;28;20052;-91
2020/12/20 15:24:24;;;;;;;18.45;3.10;;;11.50;99.90;;;;;;5063251;28;20044;-91
2020/12/20 15:27:00;;;;;;;21.58;2.78;;;11.50;99.90;;;;;;5063533;28;20055;-90
2020/12/20 15:29:38;;;;;;;21.52;3.70;;;11.50;99.90;;;;;;5066264;28;20079;-91
2020/12/20 15:32:31;;;;;;;22.52;3.30;;;11.50;99.90;;;;;;5067834;28;20052;-90
2020/12/20 15:35:19;;;;;;;22.55;2.92;;;11.40;99.90;;;;;;5066218;28;20055;-95
2020/12/20 15:38:04;;;;;;;22.52;4.30;;;11.40;99.90;;;;;;5065757;28;20056;-89
2020/12/20 15:40:41;;;;;;;21.45;4.10;;;11.40;99.90;;;;;;5063383;28;20066;-90
2020/12/20 15:43:13;;;;;;;20.60;4.30;;;11.30;99.90;;;;;;5064047;28;20049;-89
2020/12/20 15:45:45;;;;;;;23.90;4.30;;;11.30;99.90;;;;;;5066860;28;20493;-89
2020/12/20 15:48:17;;;;;;;20.27;4.35;;;11.30;99.90;;;;;;5068014;28;20044;-90
2020/12/20 15:50:47;;;;;;;18.15;4.13;;;11.30;99.90;;;;;;5067685;28;20437;-90
2020/12/20 15:53:22;;;;;;;21.90;3.53;;;11.30;99.90;;;;;;5067048;28;20344;-89
2020/12/20 15:55:54;;;;;;;15.00;3.20;;;11.30;99.90;;;;;;5067614;28;20114;-88
2020/12/20 15:58:45;;;;;;;27.20;5.35;;;11.20;99.90;;;;;;5065928;28;20051;-89
2020/12/20 16:01:29;;;;;;;21.10;3.75;;;11.20;99.90;;;;;;5065457;28;20467;-93
2020/12/20 16:04:22;;;;;;;25.23;4.95;;;11.20;99.90;;;;;;5067341;28;20037;-92
2020/12/20 16:07:04;;;;;;;26.05;6.60;;;11.20;99.90;;;;;;5062326;28;20045;-91
2020/12/20 16:09:39;;;;;;;18.70;3.10;;;11.10;99.90;;;;;;5051351;28;20091;-90
2020/12/20 16:12:13;;;;;;;17.13;2.70;;;11.10;99.90;;;;;;5064918;28;20052;-90
2020/12/20 16:14:46;;;;;;;15.82;2.85;;;11.10;99.90;;;;;;5066200;28;20048;-89
2020/12/20 16:17:24;;;;;;;14.95;2.40;;;11.10;99.90;;;;;;5064145;28;20058;-93
2020/12/20 16:20:02;;;;;;;18.02;3.25;;;11.10;99.90;;;;;;5047017;28;20128;-93
2020/12/20 16:22:37;;;;;;;22.60;8.50;;;11.10;99.90;;;;;;5060222;28;20045;-90
2020/12/20 16:25:12;;;;;;;16.52;4.22;;;11.00;99.90;;;;;;5063372;28;20123;-91
2020/12/20 16:27:48;;;;;;;14.40;3.72;;;11.00;99.90;;;;;;5061567;28;20417;-91
2020/12/20 16:30:27;;;;;;;22.13;7.38;;;11.00;99.90;;;;;;5057756;28;20053;-91
2020/12/20 16:33:04;;;;;;;20.05;8.52;;;11.00;99.90;;;;;;5071769;28;20058;-90
2020/12/20 16:35:53;;;;;;;25.48;11.10;;;11.00;99.90;;;;;;5065592;28;20052;-91
2020/12/20 16:38:27;;;;;;;24.13;11.13;;;10.90;99.90;;;;;;5046215;28;20053;-89
2020/12/20 16:44:11;;;;;;;26.55;4.97;;;11.00;99.90;;;;;;5042433;28;20049;-90
2020/12/20 16:46:47;;;;;;;25.02;10.35;;;10.90;99.90;;;;;;5032932;28;20057;-89
2020/12/20 16:49:25;;;;;;;;;;;10.90;99.90;;;;;;5028932;28;20041;-89
2020/12/20 16:52:01;;;;;;;20.67;4.10;;;10.90;99.90;;;;;;5034934;28;19968;-93
2020/12/20 16:54:40;;;;;;;17.00;5.78;;;10.90;99.90;;;;;;5033659;28;20041;-90
2020/12/20 16:57:14;;;;;;;19.40;4.30;;;10.90;99.90;;;;;;5030721;28;20488;-90
2020/12/20 16:59:50;;;;;;;112.25;52.78;;;10.90;99.90;;;;;;5031438;28;20517;-90
2020/12/20 17:02:47;;;;;;;31.92;14.90;;;10.90;99.90;;;;;;5033240;28;20037;-90
2020/12/20 17:05:40;;;;;;;21.58;7.63;;;10.90;99.90;;;;;;5032690;28;20112;-88
2020/12/20 17:08:18;;;;;;;27.88;6.68;;;10.90;99.90;;;;;;5042860;28;20037;-89
2020/12/20 17:10:54;;;;;;;29.63;8.73;;;10.90;99.90;;;;;;5029567;28;20056;-90
2020/12/20 17:13:31;;;;;;;15.57;4.40;;;10.90;99.90;;;;;;5027772;28;20518;-89
2020/12/20 17:16:02;;;;;;;24.15;6.30;;;10.90;99.90;;;;;;5028188;28;20124;-89
2020/12/20 17:18:36;;;;;;;21.33;5.72;;;10.90;99.90;;;;;;5030828;28;20048;-89
2020/12/20 17:21:22;;;;;;;25.75;9.52;;;10.90;99.90;;;;;;5031843;28;20160;-89
2020/12/20 17:23:55;;;;;;;24.95;10.38;;;10.90;99.90;;;;;;5030055;28;20068;-88
2020/12/20 17:26:30;;;;;;;28.45;10.75;;;10.90;99.90;;;;;;5030272;28;20056;-90
2020/12/20 17:29:07;;;;;;;25.75;7.78;;;10.90;99.90;;;;;;5026215;28;20472;-90
2020/12/20 17:31:39;;;;;;;27.40;8.13;;;10.90;99.90;;;;;;5029902;28;20533;-84
2020/12/20 17:34:11;;;;;;;28.65;5.28;;;10.90;99.90;;;;;;5025929;28;20132;-91
2020/12/20 17:36:50;;;;;;;34.63;6.85;;;10.90;99.90;;;;;;5051568;28;20058;-95
2020/12/20 17:39:21;;;;;;;20.88;5.25;;;10.90;99.90;;;;;;5061391;28;20036;-86
2020/12/20 17:42:00;;;;;;;21.92;4.70;;;10.90;99.90;;;;;;5065770;28;20131;-90
2020/12/20 17:44:30;;;;;;;22.65;5.90;;;10.90;99.90;;;;;;5064649;28;20045;-90
2020/12/20 17:47:02;;;;;;;27.88;6.72;;;10.90;99.90;;;;;;5064173;28;20053;-91
2020/12/20 17:49:38;;;;;;;23.42;5.15;;;10.90;99.90;;;;;;5065025;28;20105;-91
2020/12/20 17:52:13;;;;;;;30.20;6.93;;;10.90;99.90;;;;;;5065398;28;20045;-91
2020/12/20 17:54:54;;;;;;;19.27;7.18;;;10.90;99.90;;;;;;5063191;28;20056;-91
2020/12/20 17:57:30;;;;;;;19.98;3.90;;;10.90;99.90;;;;;;5064654;28;20116;-91
2020/12/20 18:00:08;;;;;;;18.38;3.83;;;10.90;99.90;;;;;;5061401;28;20074;-90
2020/12/20 18:02:42;;;;;;;24.67;3.42;;;10.90;99.90;;;;;;5068572;28;20056;-91
2020/12/20 18:05:16;;;;;;;19.58;2.80;;;10.90;99.90;;;;;;5066971;28;20918;-91
2020/12/20 18:07:50;;;;;;;20.08;3.28;;;10.90;99.90;;;;;;5063623;28;20064;-91
2020/12/20 18:10:30;;;;;;;19.35;3.50;;;10.90;99.90;;;;;;5078473;28;20470;-91
2020/12/20 18:13:02;;;;;;;20.10;3.63;;;10.80;99.90;;;;;;5061768;28;20053;-91
2020/12/20 18:15:37;;;;;;;23.10;4.07;;;10.80;99.90;;;;;;5062547;28;20049;-91
2020/12/20 18:18:11;;;;;;;17.15;3.13;;;10.80;99.90;;;;;;5064455;28;20080;-91
2020/12/20 18:20:50;;;;;;;19.17;3.58;;;10.80;99.90;;;;;;5064452;28;20437;-91
2020/12/20 18:23:25;;;;;;;20.65;4.60;;;10.80;99.90;;;;;;5061604;28;20132;-91
2020/12/20 18:26:04;;;;;;;22.88;7.28;;;10.80;99.90;;;;;;5063889;28;20129;-91
2020/12/20 18:28:37;;;;;;;20.88;7.05;;;10.70;99.90;;;;;;5061108;28;20044;-91
2020/12/20 18:31:09;;;;;;;21.15;5.10;;;10.70;99.90;;;;;;5060029;28;20060;-91
2020/12/20 18:33:40;;;;;;;24.08;6.82;;;10.70;99.90;;;;;;5059405;28;20048;-91
2020/12/20 18:36:10;;;;;;;20.20;7.35;;;10.70;99.90;;;;;;5054848;28;20495;-91
2020/12/20 18:38:42;;;;;;;25.67;8.70;;;10.70;99.90;;;;;;5054352;28;20044;-91
2020/12/20 18:41:12;;;;;;;16.20;5.15;;;10.70;99.90;;;;;;5058090;28;20052;-91
2020/12/20 18:43:41;;;;;;;16.75;3.63;;;10.70;99.90;;;;;;5056167;28;20051;-90
2020/12/20 18:46:14;;;;;;;14.27;3.78;;;10.70;99.90;;;;;;5057815;28;20053;-90
2020/12/20 18:48:47;;;;;;;16.77;5.07;;;10.70;99.90;;;;;;5052112;28;20103;-90
2020/12/20 18:51:19;;;;;;;22.38;6.30;;;10.60;99.90;;;;;;5056321;28;20441;-91
2020/12/20 18:53:51;;;;;;;19.10;6.85;;;10.60;99.90;;;;;;5056020;28;20052;-91
2020/12/20 18:56:29;;;;;;;19.13;6.57;;;10.60;99.90;;;;;;5055399;28;20053;-91
2020/12/20 18:59:05;;;;;;;14.88;5.70;;;10.60;99.90;;;;;;5060291;28;20143;-91
2020/12/20 19:01:43;;;;;;;20.45;7.07;;;10.60;99.90;;;;;;5056458;28;20048;-91
2020/12/20 19:04:25;;;;;;;26.27;8.18;;;10.60;99.90;;;;;;5049028;28;20128;-91
2020/12/20 19:07:04;;;;;;;28.77;8.95;;;10.50;99.90;;;;;;5043766;28;20052;-91
2020/12/20 19:09:49;;;;;;;28.65;7.78;;;10.50;99.90;;;;;;5045172;28;20159;-90
2020/12/20 19:12:26;;;;;;;20.02;6.70;;;10.50;99.90;;;;;;5045707;28;20053;-90
2020/12/20 19:15:00;;;;;;;22.05;5.93;;;10.50;99.90;;;;;;5044948;28;20429;-90
2020/12/20 19:17:38;;;;;;;21.85;5.95;;;10.60;99.90;;;;;;5045744;28;20445;-90
2020/12/20 19:20:14;;;;;;;20.10;6.15;;;10.60;99.90;;;;;;5057768;28;20057;-90
2020/12/20 19:22:53;;;;;;;23.30;5.53;;;10.50;99.90;;;;;;5063124;28;20064;-90
2020/12/20 19:25:28;;;;;;;17.45;3.80;;;10.60;99.90;;;;;;5066392;28;20136;-90
2020/12/20 19:28:03;;;;;;;16.80;3.42;;;10.60;99.90;;;;;;5061719;28;20144;-90
2020/12/20 19:30:36;;;;;;;14.70;4.38;;;10.60;99.90;;;;;;5068965;28;20048;-90
2020/12/20 19:33:13;;;;;;;17.52;3.30;;;10.60;99.90;;;;;;5066373;28;20052;-90
2020/12/20 19:35:49;;;;;;;15.75;3.22;;;10.60;99.90;;;;;;5064456;28;20044;-90
2020/12/20 19:38:29;;;;;;;18.75;3.50;;;10.60;99.90;;;;;;5064977;28;20068;-90
2020/12/20 19:41:00;;;;;;;18.25;2.90;;;10.60;99.90;;;;;;5066291;28;20068;-90
2020/12/20 19:43:33;;;;;;;23.15;4.72;;;10.60;99.90;;;;;;5062241;28;20052;-90
2020/12/20 19:46:06;;;;;;;19.02;5.00;;;10.60;99.90;;;;;;5067937;28;20350;-89
2020/12/20 19:48:52;;;;;;;22.55;4.85;;;10.60;99.90;;;;;;5066779;28;20544;-90
2020/12/20 19:51:31;;;;;;;25.08;4.78;;;10.60;99.90;;;;;;5067580;28;20123;-90
2020/12/20 19:54:08;;;;;;;23.08;6.25;;;10.60;99.90;;;;;;5067646;28;20159;-90
2020/12/20 19:56:41;;;;;;;16.33;3.50;;;10.60;99.90;;;;;;5067268;28;20049;-88
2020/12/20 19:59:09;;;;;;;21.70;4.95;;;10.60;99.90;;;;;;5065109;28;20098;-89
2020/12/20 20:01:47;;;;;;;18.85;4.10;;;10.60;99.90;;;;;;5066273;28;20063;-90
2020/12/20 20:04:19;;;;;;;20.13;3.00;;;10.70;99.90;;;;;;5066243;28;20056;-90
2020/12/20 20:06:50;;;;;;;16.50;4.90;;;10.70;99.90;;;;;;5062396;28;20071;-90
2020/12/20 20:09:24;;;;;;;23.15;5.47;;;10.70;99.90;;;;;;5065967;28;20339;-90
2020/12/20 20:11:58;;;;;;;16.20;3.90;;;10.70;99.90;;;;;;5065879;28;20056;-90
2020/12/20 20:14:29;;;;;;;18.30;4.00;;;10.70;99.90;;;;;;5071117;28;20068;-90
2020/12/20 20:17:07;;;;;;;11.27;3.03;;;10.70;99.90;;;;;;5061437;28;20049;-90
2020/12/20 20:19:42;;;;;;;22.02;4.60;;;10.70;99.90;;;;;;5059085;28;20059;-89
2020/12/20 20:22:23;;;;;;;20.40;3.60;;;10.70;99.90;;;;;;5057376;28;20072;-90
2020/12/20 20:25:14;;;;;;;24.58;4.40;;;10.80;99.90;;;;;;5045906;28;20394;-91
2020/12/20 20:27:53;;;;;;;19.50;3.80;;;10.70;99.90;;;;;;5065125;28;20203;-90
2020/12/20 20:30:31;;;;;;;18.55;3.83;;;10.70;99.90;;;;;;5067740;28;20040;-91
2020/12/20 20:33:10;;;;;;;18.80;4.50;;;10.70;99.90;;;;;;5063126;28;20057;-90
2020/12/20 20:35:51;;;;;;;19.58;4.47;;;10.80;99.90;;;;;;5065778;28;20044;-90
2020/12/20 20:38:25;;;;;;;20.13;4.10;;;10.80;99.90;;;;;;5064585;28;20482;-89
2020/12/20 20:41:02;;;;;;;19.13;5.18;;;10.70;99.90;;;;;;5065468;28;20048;-90
2020/12/20 20:43:39;;;;;;;14.30;3.60;;;10.70;99.90;;;;;;5065091;28;20044;-91
2020/12/20 20:46:21;;;;;;;11.60;4.43;;;10.70;99.90;;;;;;5065493;28;20107;-89
2020/12/20 20:48:54;;;;;;;17.65;3.60;;;10.70;99.90;;;;;;5066800;28;20076;-90
2020/12/20 20:51:28;;;;;;;13.70;3.78;;;10.80;99.90;;;;;;5061947;28;20052;-89
2020/12/20 20:54:00;;;;;;;15.93;3.75;;;10.80;99.90;;;;;;5063979;28;20074;-89
2020/12/20 20:56:34;;;;;;;17.63;3.30;;;10.80;99.90;;;;;;5049979;28;20044;-90
2020/12/20 20:59:10;;;;;;;15.23;3.63;;;10.80;99.90;;;;;;5060497;28;20056;-90
2020/12/20 21:01:43;;;;;;;13.35;3.35;;;10.80;99.90;;;;;;5051328;28;20140;-90
2020/12/20 21:04:16;;;;;;;18.08;3.45;;;10.90;99.90;;;;;;5064063;28;20057;-90
2020/12/20 21:06:52;;;;;;;15.20;3.67;;;10.90;99.90;;;;;;5069077;28;20079;-89
2020/12/20 21:09:24;;;;;;;15.30;3.92;;;10.90;99.90;;;;;;5059444;28;20044;-90
2020/12/20 21:12:00;;;;;;;14.73;2.88;;;10.90;99.90;;;;;;5065686;28;20399;-90
2020/12/20 21:14:37;;;;;;;12.60;3.30;;;10.90;99.90;;;;;;5079910;28;20053;-89